createdAt,value
2023-11-27T00:01:25.116Z,1.10
2023-11-27T00:03:52.466Z,1.10
2023-11-27T00:06:20.377Z,1.10
2023-11-27T00:08:47.552Z,1.00
2023-11-27T00:11:14.726Z,1.00
2023-11-27T00:13:41.964Z,1.00
2023-11-27T00:16:09.531Z,1.00
2023-11-27T00:18:36.745Z,1.10
2023-11-27T00:21:04.089Z,0.90
2023-11-27T00:23:31.357Z,0.90
2023-11-27T00:25:58.528Z,0.90
2023-11-27T00:28:25.739Z,0.90
2023-11-27T00:30:53.121Z,0.90
2023-11-27T00:33:20.623Z,0.90
2023-11-27T00:35:47.833Z,0.80
2023-11-27T00:38:15.107Z,0.80
2023-11-27T00:40:43.176Z,0.80
2023-11-27T00:43:10.478Z,0.80
2023-11-27T00:45:37.804Z,0.80
2023-11-27T00:48:05.488Z,0.80
2023-11-27T00:50:32.963Z,0.80
2023-11-27T00:53:00.275Z,0.80
2023-11-27T00:55:27.634Z,0.80
2023-11-27T00:57:54.939Z,0.80
2023-11-27T01:00:22.655Z,0.80
2023-11-27T01:02:53.557Z,0.70
2023-11-27T01:05:21.014Z,0.70
2023-11-27T01:07:48.300Z,0.70
2023-11-27T01:10:15.490Z,0.70
2023-11-27T01:12:46.439Z,0.70
2023-11-27T01:15:15.360Z,0.70
2023-11-27T01:17:43.281Z,0.60
2023-11-27T01:20:11.526Z,0.60
2023-11-27T01:22:39.024Z,0.50
2023-11-27T01:25:07.412Z,0.50
2023-11-27T01:27:35.576Z,0.50
2023-11-27T01:30:05.485Z,0.40
2023-11-27T01:32:32.887Z,0.40
2023-11-27T01:35:00.476Z,0.40
2023-11-27T01:37:27.798Z,0.40
2023-11-27T01:39:55.166Z,0.50
2023-11-27T01:42:22.358Z,0.50
2023-11-27T01:44:49.670Z,0.50
2023-11-27T01:47:17.056Z,0.60
2023-11-27T01:49:45.958Z,0.60
2023-11-27T01:52:14.565Z,0.50
2023-11-27T01:54:42.390Z,0.50
2023-11-27T01:57:16.673Z,0.50
2023-11-27T01:59:47.875Z,0.50
2023-11-27T02:02:16.399Z,2.20
2023-11-27T02:04:44.026Z,0.60
2023-11-27T02:07:13.525Z,0.60
2023-11-27T02:09:41.092Z,0.60
2023-11-27T02:12:08.420Z,0.60
2023-11-27T02:14:35.901Z,0.70
2023-11-27T02:17:03.099Z,0.70
2023-11-27T02:19:30.350Z,0.70
2023-11-27T02:21:57.612Z,0.80
2023-11-27T02:24:24.887Z,0.80
2023-11-27T02:26:52.173Z,0.70
2023-11-27T02:29:19.424Z,0.70
2023-11-27T02:31:47.334Z,0.60
2023-11-27T02:34:14.750Z,0.70
2023-11-27T02:36:42.118Z,0.70
2023-11-27T02:39:09.371Z,0.60
2023-11-27T02:41:39.531Z,0.70
2023-11-27T02:44:07.062Z,0.70
2023-11-27T02:46:34.579Z,0.70
2023-11-27T02:49:02.789Z,0.70
2023-11-27T02:51:30.000Z,0.60
2023-11-27T02:53:57.160Z,0.60
2023-11-27T02:56:24.805Z,0.60
2023-11-27T02:58:52.626Z,0.70
2023-11-27T03:01:20.406Z,0.60
2023-11-27T03:03:47.657Z,0.60
2023-11-27T03:06:14.958Z,0.60
2023-11-27T03:08:42.162Z,0.60
2023-11-27T03:11:12.924Z,0.60
2023-11-27T03:13:43.169Z,0.60
2023-11-27T03:16:10.665Z,0.50
2023-11-27T03:18:38.614Z,0.50
2023-11-27T03:21:06.184Z,0.50
2023-11-27T03:23:33.411Z,0.50
2023-11-27T03:26:04.232Z,0.60
2023-11-27T03:28:31.432Z,0.60
2023-11-27T03:30:58.613Z,0.60
2023-11-27T03:33:25.916Z,0.60
2023-11-27T03:35:53.111Z,0.60
2023-11-27T03:38:20.473Z,0.60
2023-11-27T03:40:47.740Z,0.60
2023-11-27T03:43:15.069Z,0.60
2023-11-27T03:45:42.479Z,0.60
2023-11-27T03:48:09.822Z,0.60
2023-11-27T03:50:37.041Z,0.60
2023-11-27T03:53:05.295Z,0.50
2023-11-27T03:55:32.528Z,0.40
2023-11-27T03:57:59.832Z,0.50
2023-11-27T04:00:27.141Z,0.50
2023-11-27T04:02:54.355Z,0.50
2023-11-27T04:05:21.558Z,0.50
2023-11-27T04:07:48.805Z,0.40
2023-11-27T04:10:17.809Z,0.50
2023-11-27T04:12:45.185Z,0.60
2023-11-27T04:15:13.289Z,0.60
2023-11-27T04:17:40.716Z,0.70
2023-11-27T04:20:08.735Z,0.70
2023-11-27T04:22:35.875Z,0.70
2023-11-27T04:25:03.371Z,1.00
2023-11-27T04:27:31.966Z,0.60
2023-11-27T04:30:00.922Z,0.60
2023-11-27T04:32:28.266Z,0.60
2023-11-27T04:34:55.526Z,0.60
2023-11-27T04:37:22.997Z,0.60
2023-11-27T04:39:52.682Z,0.60
2023-11-27T04:42:20.387Z,0.60
2023-11-27T04:44:47.890Z,0.60
2023-11-27T04:47:15.114Z,0.60
2023-11-27T04:49:42.299Z,0.60
2023-11-27T04:52:09.468Z,0.60
2023-11-27T04:54:36.737Z,0.50
2023-11-27T04:57:04.931Z,0.50
2023-11-27T04:59:32.151Z,0.50
2023-11-27T05:01:59.600Z,0.50
2023-11-27T05:04:26.948Z,0.50
2023-11-27T05:06:55.268Z,0.50
2023-11-27T05:09:23.096Z,0.50
2023-11-27T05:11:50.404Z,0.50
2023-11-27T05:14:17.698Z,1.90
2023-11-27T05:16:45.078Z,0.60
2023-11-27T05:19:12.344Z,0.60
2023-11-27T05:21:39.565Z,0.60
2023-11-27T05:24:06.911Z,0.60
2023-11-27T05:26:34.143Z,0.60
2023-11-27T05:29:01.265Z,0.70
2023-11-27T05:31:28.646Z,0.60
2023-11-27T05:33:56.117Z,0.60
2023-11-27T05:36:24.787Z,0.60
2023-11-27T05:38:51.958Z,0.60
2023-11-27T05:41:20.035Z,0.70
2023-11-27T05:43:53.021Z,0.70
2023-11-27T05:46:23.417Z,0.70
2023-11-27T05:48:56.618Z,0.70
2023-11-27T05:51:27.648Z,0.70
2023-11-27T05:53:57.905Z,0.70
2023-11-27T05:56:25.181Z,0.70
2023-11-27T05:58:58.932Z,0.70
2023-11-27T06:01:26.492Z,1.10
2023-11-27T06:03:53.785Z,1.50
2023-11-27T06:06:24.998Z,0.70
2023-11-27T06:08:52.428Z,0.60
2023-11-27T06:11:22.059Z,0.60
2023-11-27T06:13:49.518Z,0.60
2023-11-27T06:16:17.070Z,0.60
2023-11-27T06:18:44.976Z,0.60
2023-11-27T06:21:14.857Z,0.60
2023-11-27T06:23:42.325Z,0.50
2023-11-27T06:26:14.420Z,2.20
2023-11-27T06:28:42.064Z,2.20
2023-11-27T06:31:09.487Z,0.70
2023-11-27T06:33:36.871Z,0.70
2023-11-27T06:36:04.882Z,0.70
2023-11-27T06:38:32.230Z,0.70
2023-11-27T06:40:59.790Z,0.70
2023-11-27T06:43:28.581Z,0.80
2023-11-27T06:45:57.390Z,0.80
2023-11-27T06:48:24.716Z,0.70
2023-11-27T06:50:52.354Z,0.80
2023-11-27T06:53:19.773Z,0.80
2023-11-27T06:55:47.991Z,0.90
2023-11-27T06:58:16.170Z,0.80
2023-11-27T07:00:43.535Z,0.80
2023-11-27T07:03:10.823Z,0.80
2023-11-27T07:05:38.126Z,0.80
2023-11-27T07:08:05.328Z,1.00
2023-11-27T07:10:33.866Z,0.80
2023-11-27T07:13:01.482Z,0.80
2023-11-27T07:15:31.414Z,0.80
2023-11-27T07:18:10.082Z,0.90
2023-11-27T07:20:46.692Z,1.00
2023-11-27T07:23:14.064Z,0.90
2023-11-27T07:25:41.622Z,0.90
2023-11-27T07:28:08.949Z,1.00
2023-11-27T07:30:37.871Z,1.00
2023-11-27T07:33:05.224Z,1.80
2023-11-27T07:35:32.564Z,1.00
2023-11-27T07:37:59.737Z,1.10
2023-11-27T07:40:28.523Z,1.10
2023-11-27T07:42:56.673Z,1.10
2023-11-27T07:45:24.210Z,1.10
2023-11-27T07:47:53.432Z,1.10
2023-11-27T07:50:25.240Z,1.10
2023-11-27T07:52:52.761Z,1.10
2023-11-27T07:55:20.966Z,1.20
2023-11-27T07:57:48.913Z,1.20
2023-11-27T08:00:17.573Z,1.50
2023-11-27T08:02:45.389Z,1.20
2023-11-27T08:05:13.526Z,1.20
2023-11-27T08:07:41.036Z,1.20
2023-11-27T08:10:09.725Z,1.20
2023-11-27T08:12:39.717Z,1.20
2023-11-27T08:15:07.669Z,1.30
2023-11-27T08:17:35.120Z,1.30
2023-11-27T08:20:06.770Z,1.40
2023-11-27T08:22:34.108Z,1.40
2023-11-27T08:25:01.827Z,1.50
2023-11-27T08:27:29.251Z,1.60
2023-11-27T08:29:56.682Z,1.60
2023-11-27T08:32:23.958Z,1.70
2023-11-27T08:34:51.421Z,1.70
2023-11-27T08:37:18.762Z,1.70
2023-11-27T08:39:46.349Z,1.80
2023-11-27T08:42:13.603Z,1.70
2023-11-27T08:44:41.092Z,1.80
2023-11-27T08:47:08.574Z,1.80
2023-11-27T08:49:35.888Z,1.90
2023-11-27T08:52:03.141Z,1.90
2023-11-27T08:54:33.989Z,2.00
2023-11-27T08:57:01.407Z,2.00
2023-11-27T08:59:28.951Z,2.00
2023-11-27T09:01:56.277Z,2.10
2023-11-27T09:04:23.762Z,2.20
2023-11-27T09:06:51.617Z,2.30
2023-11-27T09:09:19.454Z,2.50
2023-11-27T09:11:47.419Z,2.50
2023-11-27T09:14:14.734Z,2.70
2023-11-27T09:16:42.010Z,2.70
2023-11-27T09:19:12.042Z,2.80
2023-11-27T09:21:39.914Z,2.80
2023-11-27T09:24:07.692Z,2.80
2023-11-27T09:26:35.004Z,2.80
2023-11-27T09:29:02.396Z,2.70
2023-11-27T09:31:30.407Z,2.70
2023-11-27T09:33:58.474Z,2.70
2023-11-27T09:36:27.936Z,2.70
2023-11-27T09:38:55.508Z,2.70
2023-11-27T09:41:22.746Z,2.70
2023-11-27T09:43:50.213Z,2.80
2023-11-27T09:46:20.563Z,2.80
2023-11-27T09:48:51.824Z,2.90
2023-11-27T09:51:20.426Z,2.80
2023-11-27T09:53:53.132Z,2.70
2023-11-27T09:56:29.710Z,2.60
2023-11-27T09:59:00.588Z,2.70
2023-11-27T10:01:31.068Z,2.80
2023-11-27T10:04:05.194Z,2.80
2023-11-27T10:06:37.475Z,2.80
2023-11-27T10:09:09.275Z,2.70
2023-11-27T10:11:37.770Z,2.80
2023-11-27T10:14:29.850Z,2.70
2023-11-27T10:16:59.952Z,2.60
2023-11-27T10:19:28.273Z,2.50
2023-11-27T10:21:57.752Z,2.10
2023-11-27T10:24:25.145Z,2.60
2023-11-27T10:26:52.686Z,2.60
2023-11-27T10:29:27.309Z,2.60
2023-11-27T10:31:59.486Z,2.60
2023-11-27T10:34:31.141Z,2.60
2023-11-27T10:37:03.173Z,2.50
2023-11-27T10:39:35.186Z,2.60
2023-11-27T10:42:05.040Z,2.70
2023-11-27T10:44:42.205Z,2.70
2023-11-27T10:47:10.223Z,2.70
2023-11-27T10:49:40.228Z,2.60
2023-11-27T10:52:12.625Z,2.80
2023-11-27T10:54:42.036Z,2.60
2023-11-27T10:57:10.758Z,2.60
2023-11-27T10:59:43.720Z,2.60
2023-11-27T11:02:14.920Z,3.30
2023-11-27T11:04:52.948Z,2.60
2023-11-27T11:07:51.462Z,2.70
2023-11-27T11:10:25.025Z,2.80
2023-11-27T11:12:54.553Z,2.90
2023-11-27T11:15:45.735Z,3.00
2023-11-27T11:18:44.739Z,3.00
2023-11-27T11:21:41.553Z,3.00
2023-11-27T11:24:29.181Z,3.00
2023-11-27T11:27:28.759Z,3.00
2023-11-27T11:29:59.402Z,2.90
2023-11-27T11:32:30.308Z,2.90
2023-11-27T11:35:03.588Z,2.90
2023-11-27T11:37:34.431Z,2.90
2023-11-27T11:40:04.396Z,2.90
2023-11-27T11:42:37.469Z,2.90
2023-11-27T11:45:19.988Z,2.90
2023-11-27T11:47:55.177Z,2.90
2023-11-27T11:50:30.460Z,2.90
2023-11-27T11:53:07.741Z,2.90
2023-11-27T11:55:40.860Z,2.80
2023-11-27T11:58:18.517Z,2.80
2023-11-27T12:01:02.260Z,2.80
2023-11-27T12:03:34.878Z,2.80
2023-11-27T12:06:10.181Z,2.80
2023-11-27T12:08:39.245Z,2.80
2023-11-27T12:11:08.350Z,2.80
2023-11-27T12:13:36.958Z,2.80
2023-11-27T12:16:13.973Z,2.80
2023-11-27T12:18:51.254Z,2.80
2023-11-27T12:21:24.691Z,2.80
2023-11-27T12:23:54.793Z,3.80
2023-11-27T12:26:26.387Z,3.00
2023-11-27T12:28:55.218Z,3.10
2023-11-27T12:31:24.592Z,3.10
2023-11-27T12:33:53.186Z,3.10
2023-11-27T12:36:23.697Z,3.00
2023-11-27T12:38:55.345Z,3.00
2023-11-27T12:41:34.860Z,2.80
2023-11-27T12:44:16.953Z,2.70
2023-11-27T12:46:51.263Z,2.70
2023-11-27T12:49:24.742Z,2.60
2023-11-27T12:51:54.034Z,2.60
2023-11-27T12:54:22.929Z,2.60
2023-11-27T12:57:06.640Z,2.40
2023-11-27T12:59:34.684Z,3.00
2023-11-27T13:02:02.430Z,2.30
2023-11-27T13:04:32.459Z,2.20
2023-11-27T13:07:11.126Z,2.20
2023-11-27T13:09:39.293Z,2.10
2023-11-27T13:12:18.620Z,2.10
2023-11-27T13:14:50.403Z,2.20
2023-11-27T13:17:23.226Z,2.20
2023-11-27T13:19:57.338Z,2.10
2023-11-27T13:22:33.001Z,2.10
2023-11-27T13:25:06.898Z,2.00
2023-11-27T13:27:35.082Z,2.10
2023-11-27T13:30:03.105Z,2.10
2023-11-27T13:32:38.483Z,2.10
2023-11-27T13:35:07.480Z,2.00
2023-11-27T13:37:35.875Z,2.10
2023-11-27T13:40:05.503Z,2.10
2023-11-27T13:42:34.362Z,2.00
2023-11-27T13:45:02.680Z,2.00
2023-11-27T13:47:33.818Z,2.00
2023-11-27T13:50:01.329Z,2.30
2023-11-27T13:52:33.616Z,1.90
2023-11-27T13:55:01.417Z,1.90
2023-11-27T13:57:32.532Z,1.80
2023-11-27T14:00:20.626Z,1.80
2023-11-27T14:02:52.094Z,1.80
2023-11-27T14:05:22.857Z,1.80
2023-11-27T14:07:53.514Z,1.80
2023-11-27T14:10:56.185Z,1.70
2023-11-27T14:13:23.453Z,1.70
2023-11-27T14:15:50.847Z,1.70
2023-11-27T14:18:23.313Z,1.60
2023-11-27T14:21:10.807Z,1.60
2023-11-27T14:24:50.525Z,1.50
2023-11-27T14:27:28.897Z,0.90
2023-11-27T14:29:56.375Z,1.50
2023-11-27T14:32:23.693Z,1.40
2023-11-27T14:34:53.802Z,1.40
2023-11-27T14:37:22.384Z,1.40
2023-11-27T14:39:51.528Z,1.30
2023-11-27T14:42:21.100Z,1.30
2023-11-27T14:44:49.396Z,1.30
2023-11-27T14:47:24.843Z,1.20
2023-11-27T14:49:56.790Z,1.20
2023-11-27T14:52:26.751Z,1.20
2023-11-27T14:54:54.854Z,1.20
2023-11-27T14:57:22.113Z,2.10
2023-11-27T14:59:51.740Z,1.20
2023-11-27T15:02:22.098Z,1.20
2023-11-27T15:04:50.352Z,1.20
2023-11-27T15:07:17.844Z,1.20
2023-11-27T15:09:45.319Z,1.20
2023-11-27T15:12:12.773Z,1.10
2023-11-27T15:14:41.402Z,1.10
2023-11-27T15:17:09.306Z,1.10
2023-11-27T15:19:37.236Z,1.10
2023-11-27T15:22:06.479Z,1.00
2023-11-27T15:24:34.636Z,1.10
2023-11-27T15:27:01.924Z,1.00
2023-11-27T15:29:33.496Z,1.10
2023-11-27T15:32:01.131Z,1.30
2023-11-27T15:34:30.288Z,1.10
2023-11-27T15:36:58.258Z,1.10
2023-11-27T15:39:34.106Z,1.10
2023-11-27T15:42:07.456Z,1.10
2023-11-27T15:44:36.111Z,1.00
2023-11-27T15:47:03.617Z,1.00
2023-11-27T15:49:31.040Z,1.00
2023-11-27T15:51:59.302Z,1.00
2023-11-27T15:54:27.363Z,1.00
2023-11-27T15:56:54.895Z,0.90
2023-11-27T15:59:22.273Z,1.00
2023-11-27T16:01:50.501Z,0.90
2023-11-27T16:04:20.988Z,0.90
2023-11-27T16:06:48.300Z,0.90
2023-11-27T16:09:18.043Z,0.90
2023-11-27T16:11:45.372Z,0.90
2023-11-27T16:14:18.182Z,0.80
2023-11-27T16:16:46.353Z,0.80
2023-11-27T16:19:14.562Z,0.80
2023-11-27T16:21:41.984Z,0.80
2023-11-27T16:24:09.954Z,0.80
2023-11-27T16:26:37.416Z,0.70
2023-11-27T16:29:07.352Z,0.70
2023-11-27T16:31:34.705Z,0.70
2023-11-27T16:34:01.892Z,0.70
2023-11-27T16:36:30.128Z,0.70
2023-11-27T16:38:58.445Z,0.70
2023-11-27T16:41:25.706Z,0.70
2023-11-27T16:43:52.995Z,0.70
2023-11-27T16:46:20.291Z,0.70
2023-11-27T16:48:47.503Z,0.70
2023-11-27T16:51:14.706Z,0.70
2023-11-27T16:53:42.177Z,0.70
2023-11-27T16:56:10.230Z,0.70
2023-11-27T16:58:37.722Z,0.70
2023-11-27T17:01:07.655Z,0.70
2023-11-27T17:03:36.180Z,0.70
2023-11-27T17:06:04.499Z,0.70
2023-11-27T17:08:34.374Z,0.70
2023-11-27T17:11:02.421Z,0.70
2023-11-27T17:13:29.975Z,0.70
2023-11-27T17:15:57.431Z,0.70
2023-11-27T17:18:24.665Z,0.70
2023-11-27T17:20:51.891Z,0.80
2023-11-27T17:23:19.655Z,0.80
2023-11-27T17:25:47.688Z,0.80
2023-11-27T17:28:16.233Z,0.70
2023-11-27T17:30:44.741Z,0.80
2023-11-27T17:33:13.657Z,0.80
2023-11-27T17:35:40.894Z,0.80
2023-11-27T17:38:09.447Z,0.70
2023-11-27T17:40:37.408Z,0.70
2023-11-27T17:43:04.769Z,0.70
2023-11-27T17:45:33.228Z,0.70
2023-11-27T17:48:02.199Z,0.70
2023-11-27T17:50:30.765Z,0.70
2023-11-27T17:52:59.357Z,0.70
2023-11-27T17:55:33.529Z,0.70
2023-11-27T17:58:06.192Z,0.70
2023-11-27T18:00:33.391Z,0.80
2023-11-27T18:03:00.805Z,0.70
2023-11-27T18:05:29.528Z,0.70
2023-11-27T18:08:04.099Z,0.70
2023-11-27T18:10:34.746Z,0.70
2023-11-27T18:13:02.274Z,0.70
2023-11-27T18:15:29.652Z,0.70
2023-11-27T18:17:57.141Z,0.70
2023-11-27T18:20:24.677Z,0.70
2023-11-27T18:22:52.881Z,2.40
2023-11-27T18:25:22.553Z,0.70
2023-11-27T18:27:52.170Z,0.70
2023-11-27T18:30:20.575Z,0.70
2023-11-27T18:32:48.429Z,0.70
2023-11-27T18:35:17.754Z,0.70
2023-11-27T18:37:47.424Z,0.70
2023-11-27T18:40:16.288Z,0.70
2023-11-27T18:42:46.619Z,0.70
2023-11-27T18:45:18.069Z,0.70
2023-11-27T18:47:47.216Z,0.70
2023-11-27T18:50:14.602Z,0.70
2023-11-27T18:52:43.441Z,0.70
2023-11-27T18:55:11.029Z,0.80
2023-11-27T18:57:38.425Z,0.80
2023-11-27T19:00:06.849Z,0.80
2023-11-27T19:02:34.769Z,0.80
2023-11-27T19:05:02.405Z,0.90
2023-11-27T19:07:29.847Z,0.90
2023-11-27T19:09:57.287Z,1.00
2023-11-27T19:12:26.290Z,1.00
2023-11-27T19:14:54.725Z,1.00
2023-11-27T19:17:23.099Z,1.00
2023-11-27T19:19:50.915Z,1.00
2023-11-27T19:22:18.521Z,1.00
2023-11-27T19:24:49.340Z,1.00
2023-11-27T19:27:17.407Z,1.00
2023-11-27T19:29:44.659Z,1.00
2023-11-27T19:32:17.276Z,1.00
2023-11-27T19:34:44.608Z,1.10
2023-11-27T19:37:12.179Z,1.10
2023-11-27T19:39:41.884Z,1.10
2023-11-27T19:42:09.985Z,1.20
2023-11-27T19:44:40.324Z,1.20
2023-11-27T19:47:08.357Z,1.20
2023-11-27T19:49:40.121Z,1.20
2023-11-27T19:52:07.440Z,1.20
2023-11-27T19:54:38.888Z,1.70
2023-11-27T19:57:06.225Z,1.20
2023-11-27T19:59:34.389Z,1.20
2023-11-27T20:02:04.050Z,1.20
2023-11-27T20:04:38.063Z,1.20
2023-11-27T20:07:05.403Z,1.20
2023-11-27T20:09:35.717Z,1.20
2023-11-27T20:12:04.355Z,1.20
2023-11-27T20:14:31.827Z,1.20
2023-11-27T20:16:59.428Z,1.20
2023-11-27T20:19:29.509Z,1.10
2023-11-27T20:21:56.829Z,1.10
2023-11-27T20:24:24.426Z,1.10
2023-11-27T20:26:51.595Z,1.10
2023-11-27T20:29:19.069Z,1.10
2023-11-27T20:31:46.395Z,1.10
2023-11-27T20:34:20.475Z,1.10
2023-11-27T20:36:49.382Z,1.20
2023-11-27T20:39:17.895Z,1.20
2023-11-27T20:41:45.038Z,1.20
2023-11-27T20:44:12.840Z,1.20
2023-11-27T20:47:30.312Z,1.20
2023-11-27T20:49:57.617Z,1.20
2023-11-27T20:52:25.043Z,1.20
2023-11-27T20:55:21.637Z,1.30
2023-11-27T20:57:51.814Z,1.20
2023-11-27T21:00:20.300Z,1.30
2023-11-27T21:02:51.374Z,1.30
2023-11-27T21:05:18.599Z,1.30
2023-11-27T21:07:45.973Z,1.30
2023-11-27T21:10:13.228Z,1.20
2023-11-27T21:12:43.001Z,1.20
2023-11-27T21:15:11.027Z,1.20
2023-11-27T21:17:38.550Z,1.20
2023-11-27T21:20:10.757Z,1.20
2023-11-27T21:22:38.626Z,1.20
2023-11-27T21:25:06.632Z,1.30
2023-11-27T21:27:33.945Z,1.20
2023-11-27T21:30:01.915Z,1.20
2023-11-27T21:32:29.489Z,1.20
2023-11-27T21:34:57.314Z,1.20
2023-11-27T21:37:24.696Z,1.20
2023-11-27T21:39:53.278Z,1.20
2023-11-27T21:42:21.942Z,1.10
2023-11-27T21:44:49.479Z,1.10
2023-11-27T21:47:16.682Z,1.10
2023-11-27T21:49:44.957Z,1.00
2023-11-27T21:52:12.523Z,1.00
2023-11-27T21:54:39.770Z,0.90
2023-11-27T21:57:07.194Z,1.00
2023-11-27T21:59:34.346Z,0.90
2023-11-27T22:02:02.264Z,0.90
2023-11-27T22:04:30.485Z,0.80
2023-11-27T22:06:57.877Z,0.80
2023-11-27T22:09:25.232Z,0.80
2023-11-27T22:11:53.328Z,0.70
2023-11-27T22:14:20.727Z,0.70
2023-11-27T22:16:48.127Z,0.70
2023-11-27T22:19:15.469Z,0.70
2023-11-27T22:21:43.132Z,0.70
2023-11-27T22:24:10.432Z,0.70
2023-11-27T22:26:41.800Z,0.70
2023-11-27T22:29:09.597Z,0.60
2023-11-27T22:31:37.036Z,0.60
2023-11-27T22:34:04.462Z,0.60
2023-11-27T22:36:31.768Z,0.50
2023-11-27T22:38:59.158Z,0.40
2023-11-27T22:41:26.553Z,0.40
2023-11-27T22:43:54.023Z,0.40
2023-11-27T22:46:21.439Z,0.40
2023-11-27T22:48:48.720Z,0.30
2023-11-27T22:51:19.531Z,0.30
2023-11-27T22:53:46.925Z,0.30
2023-11-27T22:56:20.792Z,0.30
2023-11-27T22:58:48.152Z,0.30
2023-11-27T23:01:15.374Z,0.30
2023-11-27T23:03:42.923Z,0.30
2023-11-27T23:06:25.412Z,0.30
2023-11-27T23:09:00.593Z,0.20
2023-11-27T23:11:27.829Z,0.20
2023-11-27T23:13:55.121Z,0.10
2023-11-27T23:16:22.423Z,0.10
2023-11-27T23:18:49.725Z,0.20
2023-11-27T23:21:16.929Z,0.10
2023-11-27T23:26:39.162Z,0.00
2023-11-27T23:29:06.984Z,0.00
2023-11-27T23:31:34.858Z,0.00
2023-11-27T23:34:02.632Z,0.00
2023-11-27T23:36:30.951Z,0.00
2023-11-27T23:38:58.193Z,-0.10
2023-11-27T23:41:25.650Z,-0.10
2023-11-27T23:43:55.380Z,-0.10
2023-11-27T23:46:22.869Z,-0.10
2023-11-27T23:48:54.053Z,-0.10
2023-11-27T23:51:26.409Z,-0.20
2023-11-27T23:53:57.133Z,-0.20
2023-11-27T23:56:29.613Z,-0.20
2023-11-27T23:58:56.904Z,-0.20
